Webcam 1 more information Webcam 1


Webcam 2 more information Webcam 2


altri nostri siti meteo:

TortoretometeolidoSito sul meteo

TortoretometeolidoSito sul meteo

Pomeziameteo 1Sito sul meteo

Pomeziameteo DashboardSito sul meteo

Caput FrigorisSito sul meteo

BarcellonameteoSito sul meteo

MeteoipassiSito sul meteo

ViterbometeoSito sul meteo

CastelnuovovomanometeoSito sul meteo



Nessuna attenzione particolare richiesta.    Non ci sono allerte meteo

Report METAR

   
LIBP - Pescara
Dati ricevuti: 21-11-2018 08:50
Molto nuvoloso  
Molto nuvoloso  
   Vento: SW 7.4 km/h
Vento: SW 7.4 km/h
Temperatura: 10°C
Temperatura Vento: 9°C
P.to Rugiada: 9°C
Umidita: 94%
Barometro: 1014 hPa
Nuvole: Molto nuvoloso
Visibilita: oltre 10 km
dettagli cloud: Molto nuvoloso 2200 ft
LIBP 210750Z 22004KT 9999 BKN022 10/09 Q1014
LIRZ - Perugia
Dati ricevuti: 21-11-2018 08:50
Nebbia, Molto nuvoloso  
Nebbia, Molto nuvoloso  
   Vento: Variabile 1.9 km/h
Vento: Variabile 1.9 km/h
Temperatura: 8°C
P.to Rugiada: 7°C
Umidita: 93%
Barometro: 1014 hPa
Nuvole: Molto nuvoloso
Visibilita: 5 km
dettagli cloud: Poche nuvole 300 ft,
Molto nuvoloso 3500 ft
LIRZ 210750Z VRB01KT 4500 BR FEW003 BKN035 08/07 Q1014
LIQN - Rieti
Dati ricevuti: 21-11-2018 09:00
Sereno  
Sereno  
   Vento: calma
Vento: calma
Temperatura: 11°C
P.to Rugiada: 9°C
Umidita: 88%
Barometro: 1013 hPa
Visibilita: oltre 10 km
dettagli cloud: Sereno
LIQN 210800Z 00000KT CAVOK 11/09 Q1013
LIPY - Falconara
Dati ricevuti: 21-11-2018 08:50
Parzialmente nuvoloso  
Parzialmente nuvoloso  
   Vento: Sud 5.6 km/h
Vento: Sud 5.6 km/h
Temperatura: 7°C
Temperatura Vento: 6°C
P.to Rugiada: 5°C
Umidita: 87%
Barometro: 1014 hPa
Nuvole: Parzialmente nuvoloso
Visibilita: oltre 10 km
dettagli cloud: Parzialmente nuvoloso 2000 ft
LIPY 210750Z 17003KT 9999 SCT020 07/05 Q1014
  

Script sviluppato da  Saratoga-weather.org Adattato per il modello da  Weerstation Leuven

Potete trovare le nostre info meteo anche a:

European Weather Network

Weather Underground

AWEKAS

Citizen Weather Observer Program (CWOP)

HAMweather, WeatherForYou, PWS Weather

Strumentazione usata:

Stazione meteo
Davis VP2

Programma gestore dati meteo
WVIEW

Server per i dati meteo
My Computer

Provider
My provider

Davis VP2

WVIEW

My Computer

My provider